Time;durP1;ratioP1;P1;durP2;ratioP2;P2;SDS_P1;SDS_P2;PMS_P1;PMS_P2;Temp;Humidity;BMP_temperature;BMP_pressure;BME280_temperature;BME280_humidity;BME280_pressure;Samples;Min_cycle;Max_cycle;Signal;HPM_P1;HPM_P2
2023/05/09 00:00:19;;;;;;;70.20;26.88;;;;;;;14.03;88.58;101943.09;6100884;19;20010;-73
2023/05/09 00:02:27;;;;;;;69.22;26.75;;;;;;;14.00;88.68;101952.88;6101906;19;20010;-73
2023/05/09 00:04:35;;;;;;;68.90;26.73;;;;;;;14.01;88.45;101955.47;6102543;19;20011;-73
2023/05/09 00:06:40;;;;;;;65.05;26.63;;;;;;;14.08;88.19;101955.25;6101306;19;20507;-73
2023/05/09 00:08:48;;;;;;;70.53;24.88;;;;;;;14.05;88.28;101958.88;6101390;19;20031;-73
2023/05/09 00:10:53;;;;;;;67.22;26.55;;;;;;;14.04;88.54;101950.06;6104045;19;20078;-73
2023/05/09 00:12:59;;;;;;;70.65;27.02;;;;;;;14.05;88.31;101953.56;6102517;19;20011;-73
2023/05/09 00:15:06;;;;;;;68.88;24.83;;;;;;;14.11;88.10;101950.69;6099156;19;20042;-73
2023/05/09 00:17:14;;;;;;;72.32;26.95;;;;;;;14.08;88.09;101948.16;6098288;19;20014;-72
2023/05/09 00:19:19;;;;;;;59.88;25.45;;;;;;;14.10;88.11;101937.56;6098550;19;20032;-73
2023/05/09 00:21:25;;;;;;;62.35;24.77;;;;;;;14.09;87.76;101944.63;6099619;19;20094;-73
2023/05/09 00:23:29;;;;;;;67.93;27.90;;;;;;;14.10;87.63;101935.75;6101155;19;20014;-73
2023/05/09 00:25:37;;;;;;;63.40;24.70;;;;;;;14.12;87.78;101933.94;6099860;19;20030;-73
2023/05/09 00:27:42;;;;;;;61.75;23.98;;;;;;;14.14;87.76;101936.50;6100808;19;20430;-73
2023/05/09 00:29:47;;;;;;;65.18;25.20;;;;;;;14.14;87.46;101929.47;6101159;19;20083;-73
2023/05/09 00:31:52;;;;;;;58.03;23.98;;;;;;;14.14;87.82;101928.56;6099811;19;20018;-75
2023/05/09 00:33:57;;;;;;;62.17;24.65;;;;;;;14.10;87.23;101919.91;6098126;19;20448;-74
2023/05/09 00:36:05;;;;;;;60.78;21.90;;;;;;;14.15;87.02;101915.31;6100503;19;20468;-74
2023/05/09 00:38:10;;;;;;;56.17;23.80;;;;;;;14.12;87.05;101920.72;6097200;19;20022;-74
2023/05/09 00:40:15;;;;;;;60.78;23.92;;;;;;;14.14;87.03;101913.59;6100819;19;20074;-73
2023/05/09 00:42:23;;;;;;;59.75;24.23;;;;;;;14.14;86.80;101910.97;6097142;19;20269;-74
2023/05/09 00:44:29;;;;;;;59.35;25.63;;;;;;;14.11;86.87;101907.53;6099119;19;20010;-73
2023/05/09 00:46:34;;;;;;;56.20;22.17;;;;;;;14.14;86.61;101908.31;6100392;19;20344;-73
2023/05/09 00:48:39;;;;;;;50.13;20.67;;;;;;;14.12;86.86;101906.66;6099743;19;20036;-73
2023/05/09 00:50:46;;;;;;;54.35;23.08;;;;;;;14.12;87.02;101904.00;6099015;19;20052;-73
2023/05/09 00:52:52;;;;;;;52.83;22.95;;;;;;;14.11;86.96;101904.91;6095134;19;20327;-73
2023/05/09 00:54:58;;;;;;;52.90;21.33;;;;;;;14.14;86.77;101904.78;6099618;19;20042;-73
2023/05/09 00:57:06;;;;;;;54.55;22.42;;;;;;;14.14;86.68;101896.84;6095892;19;20006;-73
2023/05/09 00:59:14;;;;;;;49.20;21.20;;;;;;;14.13;86.91;101897.78;6093437;19;20532;-73
2023/05/09 01:01:21;;;;;;;51.40;19.88;;;;;;;14.14;86.51;101891.56;6085448;19;20513;-72
2023/05/09 01:03:26;;;;;;;57.10;23.05;;;;;;;14.12;86.94;101883.72;6093006;19;20432;-73
2023/05/09 01:05:40;;;;;;;47.33;21.75;;;;;;;14.14;86.86;101881.88;6095005;19;20020;-74
2023/05/09 01:07:51;;;;;;;47.63;20.95;;;;;;;14.13;86.61;101869.56;6093647;19;20015;-73
2023/05/09 01:10:05;;;;;;;54.05;19.73;;;;;;;14.13;86.91;101866.06;6096191;19;21944;-73
2023/05/09 01:12:18;;;;;;;46.55;19.15;;;;;;;14.13;87.20;101860.78;6095073;19;20063;-73
2023/05/09 01:14:35;;;;;;;53.92;21.42;;;;;;;14.14;87.16;101858.09;6092247;19;23947;-73
2023/05/09 01:16:44;;;;;;;44.38;19.35;;;;;;;14.13;87.09;101859.00;6090621;19;20020;-73
2023/05/09 01:18:58;;;;;;;53.33;22.00;;;;;;;14.06;87.54;101860.16;6091543;19;20044;-74
2023/05/09 01:21:07;;;;;;;50.50;21.17;;;;;;;14.04;87.79;101859.38;6092801;19;20359;-74
2023/05/09 01:23:46;;;;;;;50.55;21.00;;;;;;;14.07;87.85;101855.75;6089734;19;20425;-74
2023/05/09 01:25:59;;;;;;;47.88;18.35;;;;;;;14.07;88.16;101855.75;6090312;19;20014;-74
2023/05/09 01:28:14;;;;;;;48.08;19.48;;;;;;;14.11;88.10;101849.41;6092481;19;20015;-74
2023/05/09 01:30:24;;;;;;;44.85;18.58;;;;;;;14.04;88.49;101841.72;6091771;19;20014;-74
2023/05/09 01:32:32;;;;;;;44.67;18.30;;;;;;;14.04;88.17;101840.88;6092940;19;20007;-73
2023/05/09 01:34:39;;;;;;;46.95;20.35;;;;;;;13.98;88.06;101834.03;6094426;19;20720;-74
2023/05/09 01:36:45;;;;;;;51.05;20.80;;;;;;;13.96;88.31;101835.03;6095377;19;20014;-73
2023/05/09 01:38:53;;;;;;;42.13;19.83;;;;;;;13.97;88.79;101837.59;6093570;19;20409;-73
2023/05/09 01:41:00;;;;;;;49.92;19.50;;;;;;;13.96;88.67;101835.88;6093780;19;20010;-73
2023/05/09 01:43:09;;;;;;;40.25;17.42;;;;;;;13.97;87.75;101834.94;6091581;19;20010;-73
2023/05/09 01:45:15;;;;;;;43.72;17.88;;;;;;;14.00;88.07;101826.88;6089320;19;20007;-73
2023/05/09 01:47:25;;;;;;;42.88;17.48;;;;;;;14.00;88.01;101820.75;6082229;19;20444;-73
2023/05/09 01:49:33;;;;;;;45.60;18.83;;;;;;;13.99;87.52;101819.88;6091995;19;20487;-74
2023/05/09 01:51:39;;;;;;;40.83;17.45;;;;;;;14.02;88.40;101818.91;6092653;19;21038;-74
2023/05/09 01:53:49;;;;;;;40.75;17.35;;;;;;;14.05;87.62;101818.78;6090676;19;20025;-74
2023/05/09 01:55:55;;;;;;;44.58;19.83;;;;;;;13.99;87.59;101811.97;6093503;19;20215;-74
2023/05/09 01:58:06;;;;;;;38.95;17.63;;;;;;;14.04;87.71;101811.78;6095078;19;20051;-73
2023/05/09 02:00:14;;;;;;;39.95;17.48;;;;;;;14.08;87.53;101807.22;6096021;19;20034;-74
2023/05/09 02:02:20;;;;;;;37.67;17.30;;;;;;;14.15;87.36;101808.72;6089347;19;20437;-74
2023/05/09 02:04:32;;;;;;;38.63;17.33;;;;;;;14.02;87.82;101800.41;6089124;19;20015;-74
2023/05/09 02:06:38;;;;;;;40.88;16.73;;;;;;;13.98;87.37;101797.03;6092033;19;20013;-74
2023/05/09 02:08:45;;;;;;;38.17;17.67;;;;;;;13.98;87.57;101797.03;6095452;19;20087;-73
2023/05/09 02:10:51;;;;;;;40.33;17.45;;;;;;;14.00;87.76;101799.59;6094426;19;20010;-73
2023/05/09 02:12:57;;;;;;;35.50;17.20;;;;;;;13.99;87.87;101792.59;6095200;19;20006;-73
2023/05/09 02:15:02;;;;;;;38.38;17.98;;;;;;;14.03;87.49;101784.50;6095262;19;20354;-75
2023/05/09 02:17:09;;;;;;;40.35;16.23;;;;;;;13.98;87.70;101786.47;6090591;19;20403;-74
2023/05/09 02:19:15;;;;;;;34.00;16.23;;;;;;;14.03;87.39;101781.88;6094077;19;20019;-74
2023/05/09 02:21:26;;;;;;;36.65;16.13;;;;;;;13.97;87.47;101789.16;6086452;19;20427;-73
2023/05/09 02:23:33;;;;;;;36.85;15.98;;;;;;;13.98;87.63;101782.94;6091075;19;20014;-75
2023/05/09 02:25:40;;;;;;;39.28;16.52;;;;;;;13.96;87.37;101788.31;6091642;19;20038;-74
2023/05/09 02:27:46;;;;;;;38.20;16.92;;;;;;;13.94;87.58;101786.66;6092466;19;20496;-74
2023/05/09 02:29:57;;;;;;;40.15;16.88;;;;;;;13.94;87.87;101781.34;6094402;19;20278;-74
2023/05/09 02:32:05;;;;;;;35.47;16.08;;;;;;;13.90;87.97;101778.00;6091611;19;20099;-74
2023/05/09 02:34:12;;;;;;;39.63;17.98;;;;;;;13.94;87.89;101769.00;6093604;19;20555;-74
2023/05/09 02:36:18;;;;;;;36.05;16.15;;;;;;;13.89;88.34;101773.59;6094258;19;20492;-74
2023/05/09 02:38:26;;;;;;;38.28;16.80;;;;;;;13.84;88.31;101778.22;6093132;19;20013;-73
2023/05/09 02:40:33;;;;;;;39.45;16.83;;;;;;;13.85;88.19;101772.03;6093144;19;20014;-74
2023/05/09 02:42:38;;;;;;;34.33;14.98;;;;;;;13.85;88.27;101774.66;6094868;19;20014;-74
2023/05/09 02:44:43;;;;;;;44.88;17.10;;;;;;;13.83;88.45;101772.06;6091769;19;20472;-74
2023/05/09 02:46:48;;;;;;;38.28;16.85;;;;;;;13.82;88.05;101766.84;6092354;19;20665;-74
2023/05/09 02:48:53;;;;;;;30.10;15.35;;;;;;;13.82;88.73;101753.63;6094766;19;20014;-73
2023/05/09 02:50:58;;;;;;;35.65;17.45;;;;;;;13.80;88.56;101756.34;6093496;19;20511;-75
2023/05/09 02:53:04;;;;;;;34.25;15.77;;;;;;;13.79;88.38;101753.75;6089197;19;20086;-73
2023/05/09 02:55:12;;;;;;;38.92;15.73;;;;;;;13.83;88.21;101758.00;6093670;19;20019;-73
2023/05/09 02:57:18;;;;;;;35.67;16.38;;;;;;;13.91;88.20;101749.78;6094234;19;20062;-73
2023/05/09 02:59:23;;;;;;;42.00;15.68;;;;;;;13.84;88.26;101751.78;6096321;19;20032;-74
2023/05/09 03:01:28;;;;;;;34.72;15.95;;;;;;;13.81;88.39;101744.00;6096271;19;20362;-73
2023/05/09 03:03:33;;;;;;;36.13;16.20;;;;;;;13.81;88.44;101747.47;6096835;19;20011;-74
2023/05/09 03:05:39;;;;;;;33.65;15.98;;;;;;;13.79;88.88;101740.53;6101850;19;20340;-74
2023/05/09 03:07:43;;;;;;;39.58;16.13;;;;;;;13.80;89.13;101744.91;6095483;19;20014;-73
2023/05/09 03:09:48;;;;;;;34.33;16.45;;;;;;;13.79;89.25;101751.09;6098027;19;20036;-74
2023/05/09 03:11:56;;;;;;;34.03;17.85;;;;;;;13.73;90.10;101749.56;6098301;19;20102;-74
2023/05/09 03:14:05;;;;;;;37.03;16.50;;;;;;;13.74;90.57;101745.13;6099043;19;20102;-74
2023/05/09 03:16:10;;;;;;;39.25;18.48;;;;;;;13.75;90.62;101746.88;6097025;19;20014;-73
2023/05/09 03:18:15;;;;;;;40.22;16.95;;;;;;;13.71;90.90;101739.97;6093874;19;20010;-73
2023/05/09 03:20:20;;;;;;;37.08;17.33;;;;;;;13.69;91.63;101744.47;6097708;19;20044;-73
2023/05/09 03:22:26;;;;;;;43.00;17.40;;;;;;;13.74;91.46;101739.84;6100634;19;20078;-73
2023/05/09 03:24:32;;;;;;;38.58;19.42;;;;;;;13.64;92.08;101734.09;6096521;19;20772;-73
2023/05/09 03:26:40;;;;;;;43.58;17.52;;;;;;;13.66;91.75;101734.88;6097929;19;20086;-73
2023/05/09 03:28:48;;;;;;;38.63;17.73;;;;;;;13.70;91.95;101725.91;6097458;19;20591;-73
2023/05/09 03:30:54;;;;;;;37.05;17.45;;;;;;;13.66;92.69;101726.09;6096199;19;20348;-74
2023/05/09 03:32:59;;;;;;;42.45;18.70;;;;;;;13.69;91.99;101713.66;6098723;19;20006;-73
2023/05/09 03:35:04;;;;;;;39.65;18.98;;;;;;;13.77;92.20;101708.03;6096792;19;20060;-74
2023/05/09 03:37:10;;;;;;;34.08;16.33;;;;;;;13.65;92.18;101701.47;6096219;19;20060;-73
2023/05/09 03:39:15;;;;;;;40.50;18.75;;;;;;;13.64;92.52;101702.41;6100125;19;20031;-74
2023/05/09 03:41:22;;;;;;;38.78;18.15;;;;;;;13.71;92.66;101703.84;6089802;19;20026;-72
2023/05/09 03:43:28;;;;;;;40.92;18.77;;;;;;;13.63;92.41;101705.94;6097270;19;20010;-74
2023/05/09 03:45:37;;;;;;;41.60;18.13;;;;;;;13.63;92.39;101695.38;6100383;19;20007;-74
2023/05/09 03:47:42;;;;;;;39.95;17.80;;;;;;;13.70;92.40;101702.16;6094083;19;20572;-73
2023/05/09 03:49:49;;;;;;;45.25;20.45;;;;;;;13.59;92.92;101699.94;6095750;19;20094;-74
2023/05/09 03:51:54;;;;;;;47.88;19.10;;;;;;;13.58;92.79;101697.34;6096546;19;20412;-73
2023/05/09 03:53:59;;;;;;;46.08;19.75;;;;;;;13.53;93.38;101694.91;6090319;19;20018;-74
2023/05/09 03:56:05;;;;;;;44.25;20.15;;;;;;;13.57;93.09;101699.13;6096698;19;20455;-73
2023/05/09 03:58:10;;;;;;;42.80;19.38;;;;;;;13.56;93.22;101691.25;6098298;19;20036;-74
2023/05/09 04:00:16;;;;;;;40.42;17.55;;;;;;;13.58;93.37;101689.41;6096561;19;20703;-74
2023/05/09 04:02:24;;;;;;;46.67;19.42;;;;;;;13.59;93.81;101680.59;6096612;19;20010;-74
2023/05/09 04:04:29;;;;;;;40.95;18.52;;;;;;;13.61;93.09;101686.66;6094462;19;20114;-73
2023/05/09 04:06:35;;;;;;;44.85;19.00;;;;;;;13.65;92.91;101679.50;6095476;19;20023;-73
2023/05/09 04:08:40;;;;;;;35.78;16.88;;;;;;;13.61;93.32;101671.69;6096169;19;20007;-74
2023/05/09 04:10:45;;;;;;;44.03;18.30;;;;;;;13.65;93.40;101671.56;6095243;19;20013;-73
2023/05/09 04:12:50;;;;;;;37.42;18.30;;;;;;;13.59;92.89;101668.25;6097625;19;20014;-74
2023/05/09 04:14:55;;;;;;;40.58;19.00;;;;;;;13.64;93.46;101677.75;6096588;19;20002;-73
2023/05/09 04:17:01;;;;;;;43.47;17.88;;;;;;;13.59;92.78;101676.16;6095326;19;20017;-74
2023/05/09 04:19:08;;;;;;;43.85;18.23;;;;;;;13.64;92.93;101672.47;6094866;19;20760;-74
2023/05/09 04:21:13;;;;;;;45.42;19.70;;;;;;;13.59;92.83;101670.88;6097045;19;20395;-74
2023/05/09 04:23:18;;;;;;;43.78;20.38;;;;;;;13.60;93.03;101669.09;6094096;19;20044;-72
2023/05/09 04:25:23;;;;;;;40.92;19.13;;;;;;;13.66;93.24;101662.72;6097316;19;20480;-74
2023/05/09 04:27:28;;;;;;;42.15;19.30;;;;;;;13.69;93.01;101663.47;6097167;19;20019;-74
2023/05/09 04:29:33;;;;;;;47.88;19.95;;;;;;;13.72;93.53;101662.47;6098707;19;20081;-74
2023/05/09 04:31:38;;;;;;;41.88;20.08;;;;;;;13.66;93.07;101663.56;6097089;19;20038;-73
2023/05/09 04:33:43;;;;;;;41.67;17.50;;;;;;;13.70;93.44;101666.97;6096947;19;20206;-74
2023/05/09 04:35:51;;;;;;;48.03;21.77;;;;;;;13.58;94.22;101663.88;6096248;19;20014;-74
2023/05/09 04:37:58;;;;;;;49.65;19.92;;;;;;;13.59;94.09;101664.75;6095442;19;20170;-74
2023/05/09 04:40:04;;;;;;;52.83;20.48;;;;;;;13.65;93.79;101655.72;6094764;19;20031;-74
2023/05/09 04:42:09;;;;;;;50.50;21.73;;;;;;;13.56;93.96;101649.00;6094646;19;20002;-74
2023/05/09 04:44:14;;;;;;;48.40;20.95;;;;;;;13.67;93.71;101643.31;6096913;19;20011;-73
2023/05/09 04:46:19;;;;;;;50.83;21.73;;;;;;;13.61;94.04;101649.69;6095423;19;20427;-74
2023/05/09 04:48:26;;;;;;;50.08;23.08;;;;;;;13.65;94.36;101637.22;6090685;19;20011;-74
2023/05/09 04:50:35;;;;;;;50.45;19.95;;;;;;;13.65;93.96;101640.72;6096245;19;20047;-72
2023/05/09 04:52:42;;;;;;;49.25;21.15;;;;;;;13.60;94.08;101637.41;6092983;19;20010;-73
2023/05/09 04:54:47;;;;;;;43.50;20.00;;;;;;;13.63;93.38;101631.16;6099560;19;20014;-73
2023/05/09 04:56:52;;;;;;;48.25;21.70;;;;;;;13.60;93.83;101624.19;6093461;19;20014;-73
2023/05/09 04:59:13;;;;;;;41.40;19.50;;;;;;;13.60;93.86;101625.06;6095790;19;20006;-75
2023/05/09 05:01:18;;;;;;;39.35;19.13;;;;;;;13.59;93.30;101618.06;6088621;19;20019;-72
2023/05/09 05:03:23;;;;;;;44.55;19.10;;;;;;;13.55;93.61;101619.09;6091909;19;20014;-73
2023/05/09 05:05:28;;;;;;;44.33;17.58;;;;;;;13.60;93.67;101618.91;6095554;19;20015;-73
2023/05/09 05:07:34;;;;;;;39.22;17.77;;;;;;;13.63;93.63;101615.28;6098166;19;20376;-73
2023/05/09 05:09:41;;;;;;;38.45;18.08;;;;;;;13.64;93.72;101611.72;6097335;19;20006;-74
2023/05/09 05:11:46;;;;;;;36.03;18.15;;;;;;;13.59;94.26;101611.94;6092786;19;20003;-73
2023/05/09 05:14:05;;;;;;;39.83;17.05;;;;;;;13.53;94.30;101614.81;6094593;19;20354;-74
2023/05/09 05:16:10;;;;;;;37.47;17.45;;;;;;;13.49;94.68;101618.50;6091045;19;20447;-74
2023/05/09 05:18:15;;;;;;;43.45;19.42;;;;;;;13.49;95.01;101614.06;6091286;19;20011;-73
2023/05/09 05:20:24;;;;;;;42.70;19.08;;;;;;;13.44;95.42;101605.47;6092102;19;20345;-73
2023/05/09 05:22:29;;;;;;;41.75;18.80;;;;;;;13.44;95.52;101615.19;6091769;19;20013;-72
2023/05/09 05:24:36;;;;;;;38.58;16.92;;;;;;;13.48;95.08;101609.72;6097283;19;20380;-72
2023/05/09 05:26:44;;;;;;;40.90;16.80;;;;;;;13.46;95.19;101602.78;6093704;19;20002;-72
2023/05/09 05:28:54;;;;;;;41.70;17.98;;;;;;;13.46;95.58;101597.50;6095364;19;20084;-73
2023/05/09 05:30:59;;;;;;;38.80;17.88;;;;;;;13.49;95.10;101603.50;6094429;19;20068;-72
2023/05/09 05:33:04;;;;;;;33.78;16.52;;;;;;;13.52;95.48;101595.47;6094616;19;20495;-73
2023/05/09 05:35:10;;;;;;;41.83;18.42;;;;;;;13.55;95.38;101595.34;6092066;19;20079;-74
2023/05/09 05:37:15;;;;;;;40.97;17.92;;;;;;;13.56;95.47;101597.06;6095965;19;20488;-72
2023/05/09 05:39:20;;;;;;;37.00;17.60;;;;;;;13.61;95.33;101592.47;6093251;19;20263;-72
2023/05/09 05:41:26;;;;;;;37.42;17.67;;;;;;;13.60;95.09;101596.00;6098102;19;20295;-73
2023/05/09 05:43:34;;;;;;;40.22;18.50;;;;;;;13.57;95.44;101601.41;6098775;19;20026;-73
2023/05/09 05:45:39;;;;;;;33.78;15.38;;;;;;;13.70;95.31;101599.13;6096996;19;20017;-73
2023/05/09 05:47:44;;;;;;;38.10;16.25;;;;;;;13.55;95.87;101594.47;6099538;19;20006;-73
2023/05/09 05:49:50;;;;;;;40.22;17.00;;;;;;;13.55;95.55;101592.69;6096752;19;20044;-74
2023/05/09 05:51:55;;;;;;;34.97;16.50;;;;;;;13.52;95.69;101595.47;6098421;19;20007;-73
2023/05/09 05:54:01;;;;;;;33.38;17.20;;;;;;;13.47;96.22;101589.50;6092821;19;20010;-75
2023/05/09 05:56:06;;;;;;;38.92;17.00;;;;;;;13.51;95.67;101593.75;6099287;19;20353;-74
2023/05/09 05:58:11;;;;;;;36.88;17.38;;;;;;;13.47;96.65;101584.22;6097457;19;20042;-73
2023/05/09 06:00:20;;;;;;;37.13;17.05;;;;;;;13.44;96.25;101588.78;6099125;19;20014;-75
2023/05/09 06:02:28;;;;;;;38.08;16.52;;;;;;;13.47;95.89;101584.22;6096593;19;20467;-73
2023/05/09 06:04:33;;;;;;;36.03;15.82;;;;;;;13.41;96.02;101587.13;6090609;19;20440;-73
2023/05/09 06:06:38;;;;;;;39.35;16.77;;;;;;;13.38;96.67;101585.47;6094314;19;20122;-75
2023/05/09 06:08:43;;;;;;;31.83;14.52;;;;;;;13.33;96.08;101570.75;6095772;19;20475;-76
2023/05/09 06:10:48;;;;;;;39.53;17.38;;;;;;;13.34;96.87;101573.31;6093203;19;20499;-74
2023/05/09 06:12:53;;;;;;;31.33;13.68;;;;;;;13.31;95.79;101569.94;6091864;19;20505;-73
2023/05/09 06:14:58;;;;;;;30.33;14.82;;;;;;;13.33;96.02;101568.09;6094619;19;20382;-73
2023/05/09 06:17:06;;;;;;;31.55;13.65;;;;;;;13.36;95.49;101570.59;6087613;19;20191;-73
2023/05/09 06:19:11;;;;;;;31.45;13.80;;;;;;;13.27;95.98;101565.69;6099193;19;20011;-73
2023/05/09 06:21:16;;;;;;;30.02;14.48;;;;;;;13.23;96.38;101559.66;6100527;19;20011;-73
2023/05/09 06:23:21;;;;;;;30.60;13.65;;;;;;;13.27;97.07;101565.69;6097392;19;20647;-72
2023/05/09 06:25:26;;;;;;;27.90;12.38;;;;;;;13.20;96.13;101564.19;6098282;19;20011;-72
2023/05/09 06:27:32;;;;;;;30.95;12.90;;;;;;;13.21;95.98;101564.13;6100686;19;20022;-72
2023/05/09 06:29:37;;;;;;;26.77;13.00;;;;;;;13.20;96.28;101564.19;6098545;19;20570;-73
2023/05/09 06:31:41;;;;;;;30.40;12.95;;;;;;;13.15;96.21;101567.88;6101158;19;20025;-73
2023/05/09 06:33:49;;;;;;;24.45;12.32;;;;;;;13.17;96.82;101550.19;6098240;19;20011;-73
2023/05/09 06:35:54;;;;;;;30.40;12.68;;;;;;;13.27;96.22;101555.13;6105694;19;20006;-73
2023/05/09 06:37:59;;;;;;;24.52;12.55;;;;;;;13.28;96.97;101551.59;6101504;19;20005;-73
2023/05/09 06:40:04;;;;;;;27.80;13.45;;;;;;;13.16;97.09;101548.50;6105859;19;20010;-73
2023/05/09 06:42:09;;;;;;;26.85;12.98;;;;;;;13.26;97.07;101551.63;6096973;19;20007;-73
2023/05/09 06:44:14;;;;;;;29.23;14.80;;;;;;;13.27;97.16;101549.84;6099150;19;20104;-73
2023/05/09 06:46:19;;;;;;;30.92;13.30;;;;;;;13.24;97.21;101544.66;6097455;19;20013;-72
2023/05/09 06:48:25;;;;;;;27.25;12.85;;;;;;;13.22;97.56;101541.22;6094496;19;20013;-73
2023/05/09 06:50:34;;;;;;;29.95;14.77;;;;;;;13.26;97.44;101545.47;6095678;19;20060;-73
2023/05/09 06:52:39;;;;;;;26.77;12.77;;;;;;;13.30;97.98;101541.84;6094972;19;20017;-72
2023/05/09 06:54:44;;;;;;;28.70;12.50;;;;;;;13.25;97.10;101541.97;6099705;19;20015;-73
2023/05/09 06:56:49;;;;;;;26.80;11.25;;;;;;;13.24;96.47;101539.38;6099630;19;20011;-72
2023/05/09 06:58:54;;;;;;;23.63;11.48;;;;;;;13.24;96.54;101539.38;6102262;19;20133;-72
2023/05/09 07:00:59;;;;;;;25.20;11.68;;;;;;;13.33;96.41;101533.78;6102209;19;20329;-72
2023/05/09 07:03:06;;;;;;;23.52;10.70;;;;;;;13.22;96.02;101528.03;6102552;19;20027;-73
2023/05/09 07:05:12;;;;;;;21.85;9.90;;;;;;;13.12;95.52;101524.91;6094521;19;20011;-74
2023/05/09 07:07:20;;;;;;;21.02;9.93;;;;;;;13.26;96.00;101517.31;6094269;19;19998;-72
2023/05/09 07:09:26;;;;;;;22.40;10.45;;;;;;;13.31;95.92;101517.13;6087258;19;20465;-73
2023/05/09 07:11:36;;;;;;;21.25;10.23;;;;;;;13.28;96.12;101514.63;6090870;19;20339;-73
2023/05/09 07:13:41;;;;;;;24.08;11.43;;;;;;;13.17;96.05;101507.97;6095391;19;20400;-73
2023/05/09 07:15:46;;;;;;;20.20;10.60;;;;;;;13.13;96.98;101500.25;6097840;19;20381;-73
2023/05/09 07:17:51;;;;;;;28.40;11.45;;;;;;;13.15;96.59;101501.03;6096699;19;20017;-73
2023/05/09 07:19:58;;;;;;;23.25;10.73;;;;;;;13.14;97.25;101494.06;6093934;19;20011;-73
2023/05/09 07:22:03;;;;;;;20.52;10.23;;;;;;;13.20;96.76;101495.59;6095437;19;20003;-73
2023/05/09 07:24:11;;;;;;;24.80;10.93;;;;;;;13.26;96.94;101493.56;6097320;19;20562;-73
2023/05/09 07:26:16;;;;;;;23.40;11.00;;;;;;;13.26;96.33;101482.13;6097853;19;20086;-73
2023/05/09 07:28:20;;;;;;;24.98;11.00;;;;;;;13.29;96.85;101482.03;6095335;19;20089;-72
2023/05/09 07:30:29;;;;;;;21.95;11.23;;;;;;;13.34;97.27;101486.19;6096367;19;20127;-73
2023/05/09 07:32:34;;;;;;;24.17;12.07;;;;;;;13.42;97.06;101480.59;6095644;19;20007;-71
2023/05/09 07:34:41;;;;;;;25.30;12.60;;;;;;;13.46;96.85;101473.41;6097491;19;20006;-71
2023/05/09 07:36:46;;;;;;;28.02;12.55;;;;;;;13.51;97.48;101472.28;6095578;19;20306;-71
2023/05/09 07:38:52;;;;;;;27.42;12.85;;;;;;;13.53;97.55;101473.09;6093377;19;20487;-72
2023/05/09 07:41:00;;;;;;;26.70;12.27;;;;;;;13.53;97.44;101470.44;6094636;19;20011;-71
2023/05/09 07:43:04;;;;;;;29.58;12.55;;;;;;;13.58;97.82;101467.59;6094655;19;20036;-71
2023/05/09 07:45:10;;;;;;;29.23;12.95;;;;;;;13.52;98.06;101463.44;6095551;19;20290;-72
2023/05/09 07:47:15;;;;;;;30.63;13.85;;;;;;;13.59;97.75;101454.34;6099253;19;20011;-72
2023/05/09 07:49:20;;;;;;;26.70;13.07;;;;;;;13.60;98.02;101458.69;6097297;19;20780;-73
2023/05/09 07:51:28;;;;;;;34.78;14.10;;;;;;;13.72;97.88;101449.38;6101029;19;20062;-72
2023/05/09 07:53:32;;;;;;;26.85;13.05;;;;;;;13.78;97.45;101456.16;6096732;19;20077;-72
2023/05/09 07:55:38;;;;;;;30.50;14.15;;;;;;;13.79;97.45;101455.25;6099925;19;20082;-72
2023/05/09 07:57:45;;;;;;;31.33;14.43;;;;;;;13.75;98.22;101446.59;6096850;19;20472;-72
2023/05/09 07:59:50;;;;;;;28.55;13.45;;;;;;;13.77;98.28;101449.16;6095443;19;20015;-73
2023/05/09 08:01:58;;;;;;;30.90;15.88;;;;;;;13.69;98.45;101438.06;6095171;19;20007;-73
2023/05/09 08:04:04;;;;;;;32.00;15.48;;;;;;;13.64;98.82;101426.84;6093105;19;20507;-73
2023/05/09 08:06:09;;;;;;;32.28;15.02;;;;;;;13.59;98.40;101430.56;6094736;19;20027;-73
2023/05/09 08:08:14;;;;;;;28.90;14.85;;;;;;;13.65;98.10;101428.59;6093871;19;20708;-73
2023/05/09 08:10:20;;;;;;;27.35;13.68;;;;;;;13.66;97.98;101425.00;6096320;19;20010;-72
2023/05/09 08:12:26;;;;;;;29.40;14.25;;;;;;;13.71;98.02;101423.03;6096035;19;20006;-72
2023/05/09 08:14:34;;;;;;;28.00;13.88;;;;;;;13.71;97.98;101425.66;6094019;19;20041;-72
2023/05/09 08:16:42;;;;;;;26.38;13.48;;;;;;;13.79;97.77;101418.25;6097316;19;20364;-72
2023/05/09 08:18:47;;;;;;;35.38;15.30;;;;;;;13.83;98.45;101417.19;6096903;19;20010;-73
2023/05/09 08:20:52;;;;;;;28.20;14.52;;;;;;;13.79;97.56;101412.97;6095337;19;20523;-71
2023/05/09 08:22:58;;;;;;;30.88;14.38;;;;;;;13.83;97.71;101404.00;6096027;19;20006;-71
2023/05/09 08:25:02;;;;;;;28.42;14.02;;;;;;;13.84;98.34;101411.84;6097379;19;20007;-72
2023/05/09 08:27:07;;;;;;;24.63;12.23;;;;;;;13.86;97.55;101400.34;6095738;19;20084;-71
2023/05/09 08:29:12;;;;;;;24.42;13.02;;;;;;;13.92;97.60;101398.28;6093734;19;20066;-72
2023/05/09 08:31:21;;;;;;;25.17;12.70;;;;;;;13.73;96.43;101400.03;6098026;19;20015;-72
2023/05/09 08:33:27;;;;;;;28.40;13.88;;;;;;;13.76;97.61;101387.53;6072078;19;20366;-73
2023/05/09 08:35:33;;;;;;;28.90;13.88;;;;;;;13.81;97.96;101390.84;6092406;19;20011;-72
2023/05/09 08:37:38;;;;;;;25.23;12.23;;;;;;;13.74;97.09;101401.75;6095201;19;20947;-72
2023/05/09 08:39:43;;;;;;;25.80;12.75;;;;;;;13.87;97.13;101391.50;6093215;19;20026;-72
2023/05/09 08:41:48;;;;;;;25.15;13.05;;;;;;;13.83;97.62;101390.78;6097210;19;20419;-72
2023/05/09 08:43:54;;;;;;;23.88;12.82;;;;;;;13.78;97.55;101388.34;6101862;19;20010;-72
2023/05/09 08:46:01;;;;;;;26.63;12.90;;;;;;;13.82;97.67;101392.56;6098880;19;20019;-72
2023/05/09 08:48:11;;;;;;;23.55;12.05;;;;;;;13.85;97.33;101386.28;6099765;19;20659;-71
2023/05/09 08:50:16;;;;;;;25.88;13.55;;;;;;;13.84;97.76;101377.50;6101894;19;20018;-73
2023/05/09 08:52:22;;;;;;;24.83;12.50;;;;;;;13.94;98.07;101383.22;6100438;19;20011;-71
2023/05/09 08:54:30;;;;;;;28.00;12.90;;;;;;;13.92;97.10;101385.06;6101080;19;20015;-71
2023/05/09 08:56:37;;;;;;;25.42;13.30;;;;;;;13.96;97.84;101376.09;6100625;19;20464;-71
2023/05/09 08:58:42;;;;;;;29.17;14.20;;;;;;;14.04;97.72;101373.09;6100436;19;20010;-71
2023/05/09 09:00:49;;;;;;;29.30;13.57;;;;;;;14.02;97.14;101372.31;6095956;19;20600;-72
2023/05/09 09:02:55;;;;;;;28.23;14.75;;;;;;;14.13;96.69;101366.50;6101595;19;20043;-71
2023/05/09 09:05:03;;;;;;;27.85;14.45;;;;;;;13.93;97.21;101370.94;6102346;19;20014;-71
2023/05/09 09:07:11;;;;;;;31.80;14.75;;;;;;;13.93;98.11;101370.06;6102937;19;20774;-72
2023/05/09 09:09:18;;;;;;;26.58;14.57;;;;;;;14.00;97.49;101368.88;6102064;19;20006;-72
2023/05/09 09:11:23;;;;;;;32.85;14.95;;;;;;;14.01;97.49;101375.88;6099516;19;20015;-72
2023/05/09 09:13:29;;;;;;;29.83;15.52;;;;;;;13.99;97.56;101365.38;6102806;19;20502;-72
2023/05/09 09:15:38;;;;;;;26.13;15.05;;;;;;;14.01;98.41;101362.66;6100353;19;20589;-72
2023/05/09 09:17:45;;;;;;;31.67;15.82;;;;;;;13.90;97.78;101363.16;6098761;19;20110;-72
2023/05/09 09:20:00;;;;;;;29.73;15.82;;;;;;;13.88;98.01;101361.53;6101191;19;20122;-72
2023/05/09 09:22:09;;;;;;;29.77;16.25;;;;;;;13.85;98.28;101362.53;6099689;19;20258;-72
2023/05/09 09:24:15;;;;;;;30.50;14.93;;;;;;;13.97;97.61;101361.94;6103430;19;20077;-72
2023/05/09 09:26:21;;;;;;;27.67;14.93;;;;;;;13.92;98.27;101355.16;6102176;19;20086;-72
2023/05/09 09:28:26;;;;;;;30.30;14.93;;;;;;;13.94;98.43;101354.16;6102877;19;20014;-73
2023/05/09 09:30:32;;;;;;;36.28;16.13;;;;;;;13.87;99.00;101350.06;6100657;19;20121;-72
2023/05/09 09:32:38;;;;;;;30.83;16.70;;;;;;;13.89;98.59;101352.66;6100137;19;20038;-72
2023/05/09 09:34:43;;;;;;;35.72;16.55;;;;;;;13.92;98.15;101353.38;6102694;19;20018;-73